Time;durP1;ratioP1;P1;durP2;ratioP2;P2;SDS_P1;SDS_P2;PMS_P1;PMS_P2;Temp;Humidity;BMP_temperature;BMP_pressure;BME280_temperature;BME280_humidity;BME280_pressure;Samples;Min_cycle;Max_cycle;Signal;HPM_P1;HPM_P2
2023/05/15 03:25:18;;;;;;;;;;;;;;;;;;;;;
2023/05/15 03:28:33;;;;;;;;;;;;;;;;;;;;;
2023/05/15 04:43:30;;;;;;;8.30;7.00;;;;;;;;;;4736402;30;20029;-95
2023/05/15 04:46:08;;;;;;;13.00;8.50;;;;;;;;;;4713185;30;20041;-96
2023/05/15 04:48:37;;;;;;;9.40;8.40;;;;;;;;;;4724488;30;20072;-96
2023/05/15 04:51:09;;;;;;;9.38;8.38;;;;;;;;;;4739516;30;20127;-95
2023/05/15 04:53:38;;;;;;;10.98;8.65;;;;;;;;;;4779343;29;20038;-95
2023/05/15 04:56:07;;;;;;;8.93;7.70;;;;;;;;;;4920436;29;20035;-94
2023/05/15 04:58:36;;;;;;;8.77;7.28;;;;;;;;;;4944331;29;20031;-95
2023/05/15 05:01:03;;;;;;;8.25;7.45;;;;;;;;;;4927860;29;20031;-96
2023/05/15 05:03:29;;;;;;;7.15;6.45;;;;;;;;;;4963932;28;20562;-95
2023/05/15 05:05:55;;;;;;;7.20;6.30;;;;;;;;;;4963074;28;20042;-96
2023/05/15 05:08:22;;;;;;;7.55;6.75;;;;;;;;;;4946357;28;20039;-96
2023/05/15 05:16:41;;;;;;;;;;;;;;;;;;;;;
2023/05/15 05:19:08;;;;;;;4.75;4.25;;;;;;;;;;4942825;29;20084;-95
2023/05/15 05:21:34;;;;;;;4.07;3.17;;;;;;;;;;4945929;29;20023;-95
2023/05/15 05:24:30;;;;;;;;;;;;;;;;;;;;;
2023/05/15 05:30:09;;;;;;;4.55;3.20;;;;;;;;;;4881977;29;20633;-95
2023/05/15 05:32:55;;;;;;;4.07;3.00;;;;;;;;;;4904375;29;20077;-96
2023/05/15 05:35:24;;;;;;;3.53;2.95;;;;;;;;;;4903837;29;20489;-96
2023/05/15 05:37:50;;;;;;;4.68;2.75;;;;;;;;;;4920793;29;20051;-94
2023/05/15 05:40:16;;;;;;;2.53;2.20;;;;;;;;;;4959536;28;20043;-95
2023/05/15 05:42:43;;;;;;;3.50;2.50;;;;;;;;;;4942567;29;20034;-96
2023/05/15 05:45:11;;;;;;;3.42;3.13;;;;;;;;;;4943105;29;20487;-95
2023/05/15 05:48:19;;;;;;;2.10;1.90;;;;;;;;;;4946028;29;20024;-96
2023/05/15 06:10:41;;;;;;;1.20;0.85;;;;;;;;;;4786306;30;20107;-96
2023/05/15 06:14:19;;;;;;;;;;;;;;;;;;;;;
2023/05/15 06:16:40;;;;;;;1.35;1.00;;;;;;;;;;4812605;29;20498;-96
2023/05/15 06:22:11;;;;;;;2.38;1.10;;;;;;;;;;4785549;29;20058;-95
2023/05/15 06:24:43;;;;;;;1.70;1.13;;;;;;;;;;4777694;30;20051;-96
2023/05/15 06:27:22;;;;;;;1.80;1.10;;;;;;;;;;4839955;29;20037;-94
2023/05/15 06:30:03;;;;;;;1.63;1.17;;;;;;;;;;4897913;29;20041;-90
2023/05/15 06:32:32;;;;;;;3.87;1.13;;;;;;;;;;4886319;29;20108;-95
2023/05/15 06:35:25;;;;;;;2.22;1.40;;;;;;;;;;4898247;29;20028;-96
2023/05/15 06:41:34;;;;;;;;;;;;;;;;;;;;;
2023/05/15 06:50:29;;;;;;;;;;;;;;;;;;;;;
2023/05/15 06:53:41;;;;;;;1.90;1.58;;;;;;;;;;4748377;30;20096;-95
2023/05/15 06:56:34;;;;;;;2.85;2.00;;;;;;;;;;4721075;30;20492;-95
2023/05/15 06:59:18;;;;;;;2.58;1.70;;;;;;;;;;4721042;30;20053;-92
2023/05/15 07:01:44;;;;;;;3.47;1.60;;;;;;;;;;4732494;30;20037;-96
2023/05/15 07:04:13;;;;;;;3.15;1.63;;;;;;;;;;4730180;30;20148;-95
2023/05/15 07:06:39;;;;;;;1.77;1.20;;;;;;;;;;4726604;30;20040;-93
2023/05/15 07:09:44;;;;;;;1.88;1.27;;;;;;;;;;4725906;30;20044;-96
2023/05/15 07:20:46;;;;;;;3.13;1.75;;;;;;;;;;5988616;23;20031;31
2023/05/15 07:23:16;;;;;;;1.90;1.50;;;;;;;;;;4907725;29;20055;-96
2023/05/15 07:26:00;;;;;;;3.65;1.60;;;;;;;;;;4889523;29;20024;-94
2023/05/15 07:31:43;;;;;;;1.80;1.40;;;;;;;;;;5100827;23;20359;-94
2023/05/15 07:34:34;;;;;;;2.13;1.38;;;;;;;;;;5537691;23;20059;-92
2023/05/15 08:45:04;;;;;;;2.05;0.90;;;;;;;;;;4975646;29;20107;-92
2023/05/15 10:53:21;;;;;;;1.63;0.32;;;;;;;;;;5926329;23;20110;-92
2023/05/15 10:55:49;;;;;;;0.45;0.20;;;;;;;;;;5143914;23;20056;-95
2023/05/15 11:32:59;;;;;;;2.08;0.40;;;;;;;;;;4942590;29;20077;-92
2023/05/15 11:48:25;;;;;;;2.25;0.50;;;;;;;;;;5156637;23;20066;-93
2023/05/15 12:11:58;;;;;;;0.77;0.25;;;;;;;;;;5011660;23;20047;-95
2023/05/15 12:17:32;;;;;;;2.47;0.68;;;;;;;;;;4959272;29;20550;-96
2023/05/15 12:20:01;;;;;;;0.52;0.20;;;;;;;;;;4940909;29;20071;-96
2023/05/15 12:22:27;;;;;;;1.38;0.50;;;;;;;;;;5134392;23;1296678;-91
2023/05/15 12:28:17;;;;;;;1.98;0.22;;;;;;;;;;4917926;29;20329;-95
2023/05/15 12:36:13;;;;;;;1.70;0.30;;;;;;;;;;5038731;23;20059;-93
2023/05/15 12:38:45;;;;;;;1.17;0.20;;;;;;;;;;4940461;29;20131;-94
2023/05/15 12:41:11;;;;;;;0.40;0.10;;;;;;;;;;4932348;29;20028;-93
2023/05/15 12:43:37;;;;;;;1.20;0.20;;;;;;;;;;4920946;29;20036;-91
2023/05/15 12:46:03;;;;;;;0.68;0.25;;;;;;;;;;4921321;29;20027;-93
2023/05/15 12:48:31;;;;;;;4.20;0.32;;;;;;;;;;4922431;29;20040;-94
2023/05/15 12:51:04;;;;;;;0.70;0.20;;;;;;;;;;4919626;29;20028;-93
2023/05/15 12:53:33;;;;;;;0.93;0.30;;;;;;;;;;4930509;29;20133;-92
2023/05/15 12:55:59;;;;;;;0.98;0.35;;;;;;;;;;4941102;29;20099;-92
2023/05/15 12:58:28;;;;;;;0.88;0.38;;;;;;;;;;4940576;29;20074;-91
2023/05/15 13:00:58;;;;;;;1.17;0.38;;;;;;;;;;4940130;29;20039;-93
2023/05/15 13:03:26;;;;;;;0.98;0.40;;;;;;;;;;4940031;29;20035;-93
2023/05/15 13:05:52;;;;;;;2.20;0.70;;;;;;;;;;4921701;29;20122;-91
2023/05/15 13:08:18;;;;;;;2.42;0.43;;;;;;;;;;4920559;29;20035;-94
2023/05/15 13:10:45;;;;;;;2.50;0.40;;;;;;;;;;4921162;29;20055;-92
2023/05/15 13:18:37;;;;;;;1.80;0.45;;;;;;;;;;5188021;23;20052;-90
2023/05/15 13:21:03;;;;;;;0.50;0.30;;;;;;;;;;4964626;23;20032;-91
2023/05/15 13:31:12;;;;;;;1.70;0.30;;;;;;;;;;5324703;23;20506;-94
2023/05/15 13:33:38;;;;;;;0.80;0.30;;;;;;;;;;4920328;29;20028;-94
2023/05/15 13:36:04;;;;;;;1.95;0.30;;;;;;;;;;4918524;29;20036;-93
2023/05/15 13:38:30;;;;;;;0.52;0.20;;;;;;;;;;4938100;29;20024;-93
2023/05/15 13:43:32;;;;;;;0.93;0.30;;;;;;;;;;5886073;23;20035;-92
2023/05/15 13:45:58;;;;;;;1.33;0.20;;;;;;;;;;4917124;29;20028;-90
2023/05/15 13:48:28;;;;;;;0.90;0.20;;;;;;;;;;4917111;29;20036;-92
2023/05/15 13:50:55;;;;;;;2.30;0.30;;;;;;;;;;4905432;29;20020;-96
2023/05/15 13:53:21;;;;;;;2.88;0.30;;;;;;;;;;4927519;29;20437;-95
2023/05/15 14:03:39;;;;;;;2.72;0.40;;;;;;;;;;5392055;23;20530;-91
2023/05/15 14:06:05;;;;;;;3.17;0.35;;;;;;;;;;4920270;29;20035;-91
2023/05/15 14:08:31;;;;;;;1.83;0.50;;;;;;;;;;4919949;29;20031;-92
2023/05/15 14:10:57;;;;;;;0.90;0.30;;;;;;;;;;4919918;29;20079;-91
2023/05/15 14:13:30;;;;;;;1.02;0.40;;;;;;;;;;4920162;29;20040;-92
2023/05/15 14:15:56;;;;;;;1.27;0.50;;;;;;;;;;4919743;29;20039;-91
2023/05/15 14:18:24;;;;;;;2.80;0.50;;;;;;;;;;4919786;29;20036;-90
2023/05/15 14:20:51;;;;;;;1.85;0.60;;;;;;;;;;4919719;29;20024;-90
2023/05/15 14:32:13;;;;;;;3.33;0.40;;;;;;;;;;5490269;23;21031;-91
2023/05/15 14:35:25;;;;;;;0.80;0.30;;;;;;;;;;5013639;23;20056;-93
2023/05/15 14:55:55;;;;;;;1.60;0.40;;;;;;;;;;5966858;23;20193;-95
2023/05/15 15:21:47;;;;;;;1.70;0.40;;;;;;;;;;5721931;23;21409;-94
2023/05/15 15:24:32;;;;;;;3.35;0.47;;;;;;;;;;4958277;28;20047;-91
2023/05/15 15:29:52;;;;;;;0.65;0.30;;;;;;;;;;5666163;23;20390;-96
2023/05/15 15:32:20;;;;;;;0.82;0.40;;;;;;;;;;4907525;29;20042;-95
2023/05/15 15:35:03;;;;;;;1.05;0.40;;;;;;;;;;4906483;29;20103;-94
2023/05/15 15:37:40;;;;;;;;;;;;;;;;;;;;;
2023/05/15 15:40:07;;;;;;;2.58;0.50;;;;;;;;;;4937810;29;20493;-96
2023/05/15 15:55:08;;;;;;;2.10;0.65;;;;;;;;;;4872942;29;20062;-92
2023/05/15 15:57:36;;;;;;;2.08;0.40;;;;;;;;;;4922915;29;20067;-91
2023/05/15 16:00:20;;;;;;;1.40;0.50;;;;;;;;;;4915187;29;20028;-92
2023/05/15 16:02:53;;;;;;;1.33;0.50;;;;;;;;;;4931316;29;20040;-92
2023/05/15 16:05:19;;;;;;;1.20;0.30;;;;;;;;;;4925455;29;20036;-93
2023/05/15 16:10:49;;;;;;;;;;;;;;;;;;4926375;29;20063;-93
2023/05/15 16:19:26;;;;;;;1.30;0.40;;;;;;;;;;5437529;23;20056;-93
2023/05/15 16:22:01;;;;;;;0.80;0.35;;;;;;;;;;4949100;29;20024;-93
2023/05/15 16:24:46;;;;;;;1.50;0.50;;;;;;;;;;4942602;29;20044;-96
2023/05/15 17:42:10;;;;;;;5.63;1.95;;;;;;;;;;5144880;23;20080;-93
2023/05/15 19:00:09;;;;;;;2.63;1.20;;;;;;;;;;5377087;23;19931;-90
2023/05/15 19:45:10;;;;;;;7.75;2.55;;;;;;;;;;5866746;23;20043;-92
